createdAt,value
2018-05-25T00:00:48.174Z,87.90
2018-05-25T00:03:16.449Z,88.00
2018-05-25T00:05:44.735Z,88.00
2018-05-25T00:08:12.251Z,88.00
2018-05-25T00:10:39.758Z,88.20
2018-05-25T00:13:07.264Z,88.30
2018-05-25T00:15:34.774Z,88.30
2018-05-25T00:18:02.291Z,88.30
2018-05-25T00:20:29.800Z,88.40
2018-05-25T00:22:57.308Z,88.40
2018-05-25T00:25:24.811Z,88.60
2018-05-25T00:27:52.319Z,88.70
2018-05-25T00:30:19.847Z,88.70
2018-05-25T00:32:47.351Z,88.80
2018-05-25T00:35:15.626Z,88.80
2018-05-25T00:37:43.162Z,88.80
2018-05-25T00:40:11.439Z,89.50
2018-05-25T00:42:38.936Z,88.90
2018-05-25T00:45:06.448Z,88.80
2018-05-25T00:47:33.998Z,88.80
2018-05-25T00:50:01.540Z,89.00
2018-05-25T00:52:29.040Z,88.90
2018-05-25T00:55:08.479Z,88.90
2018-05-25T00:57:35.991Z,89.00
2018-05-25T01:00:03.545Z,89.10
2018-05-25T01:02:31.081Z,89.10
2018-05-25T01:04:59.346Z,89.00
2018-05-25T01:07:27.651Z,89.00
2018-05-25T01:09:55.152Z,89.00
2018-05-25T01:12:22.650Z,88.90
2018-05-25T01:14:50.917Z,89.30
2018-05-25T01:17:19.183Z,89.40
2018-05-25T01:19:46.704Z,89.40
2018-05-25T01:22:14.232Z,90.10
2018-05-25T01:24:41.735Z,89.50
2018-05-25T01:27:09.240Z,89.60
2018-05-25T01:29:36.751Z,89.60
2018-05-25T01:32:04.267Z,89.60
2018-05-25T01:34:31.779Z,89.70
2018-05-25T01:37:00.050Z,89.70
2018-05-25T01:39:27.651Z,89.70
2018-05-25T01:41:55.155Z,89.60
2018-05-25T01:44:22.668Z,89.60
2018-05-25T01:46:50.179Z,89.80
2018-05-25T01:49:17.696Z,89.90
2018-05-25T01:51:45.207Z,89.90
2018-05-25T01:54:12.705Z,89.90
2018-05-25T01:56:40.205Z,90.00
2018-05-25T01:59:08.512Z,90.00
2018-05-25T02:01:36.070Z,90.00
2018-05-25T02:04:03.563Z,90.30
2018-05-25T02:06:31.075Z,90.00
2018-05-25T02:08:58.576Z,90.10
2018-05-25T02:11:26.082Z,90.10
2018-05-25T02:13:54.359Z,90.10
2018-05-25T02:16:22.641Z,90.10
2018-05-25T02:18:50.905Z,90.10
2018-05-25T02:21:19.170Z,90.10
2018-05-25T02:23:46.720Z,90.10
2018-05-25T02:26:14.222Z,90.10
2018-05-25T02:28:41.729Z,90.20
2018-05-25T02:31:09.355Z,90.20
2018-05-25T02:33:36.876Z,90.20
2018-05-25T02:36:05.168Z,90.40
2018-05-25T02:38:32.803Z,90.30
2018-05-25T02:41:00.303Z,90.40
2018-05-25T02:43:27.850Z,90.40
2018-05-25T02:45:55.349Z,90.50
2018-05-25T02:48:22.862Z,90.60
2018-05-25T02:50:50.365Z,90.90
2018-05-25T02:53:17.866Z,90.60
2018-05-25T02:55:46.166Z,90.80
2018-05-25T02:58:13.720Z,90.70
2018-05-25T03:00:41.273Z,90.70
2018-05-25T03:03:08.780Z,90.90
2018-05-25T03:05:36.310Z,90.80
2018-05-25T03:08:03.824Z,90.80
2018-05-25T03:10:32.110Z,91.30
2018-05-25T03:13:00.386Z,91.00
2018-05-25T03:15:28.663Z,91.00
2018-05-25T03:17:56.930Z,91.00
2018-05-25T03:20:25.224Z,91.10
2018-05-25T03:22:53.501Z,90.90
2018-05-25T03:25:21.002Z,90.90
2018-05-25T03:27:48.507Z,90.90
2018-05-25T03:30:16.787Z,91.00
2018-05-25T03:32:45.064Z,91.00
2018-05-25T03:35:13.328Z,91.00
2018-05-25T03:37:41.602Z,91.00
2018-05-25T03:40:09.863Z,91.00
2018-05-25T03:42:37.378Z,90.90
2018-05-25T03:45:04.875Z,91.00
2018-05-25T03:47:32.470Z,90.90
2018-05-25T03:50:00.740Z,90.80
2018-05-25T03:52:29.008Z,90.80
2018-05-25T03:54:57.279Z,90.80
2018-05-25T03:57:24.782Z,90.80
2018-05-25T04:00:04.025Z,90.70
2018-05-25T04:02:31.527Z,90.70
2018-05-25T04:04:59.046Z,90.60
2018-05-25T04:07:26.553Z,90.60
2018-05-25T04:09:54.835Z,90.60
2018-05-25T04:12:23.105Z,90.70
2018-05-25T04:14:51.388Z,90.80
2018-05-25T04:17:19.653Z,90.80
2018-05-25T04:19:47.910Z,90.70
2018-05-25T04:22:15.423Z,90.70
2018-05-25T04:24:42.971Z,90.80
2018-05-25T04:27:10.486Z,90.70
2018-05-25T04:29:37.986Z,90.60
2018-05-25T04:32:05.497Z,90.90
2018-05-25T04:34:33.006Z,90.70
2018-05-25T04:37:00.535Z,90.60
2018-05-25T04:39:28.822Z,90.60
2018-05-25T04:41:57.107Z,90.50
2018-05-25T04:44:24.614Z,90.50
2018-05-25T04:46:52.120Z,90.50
2018-05-25T04:49:19.631Z,90.50
2018-05-25T04:51:47.146Z,90.50
2018-05-25T04:54:14.662Z,90.50
2018-05-25T04:56:42.176Z,90.60
2018-05-25T04:59:09.677Z,90.80
2018-05-25T05:01:38.742Z,90.70
2018-05-25T05:04:06.254Z,90.60
2018-05-25T05:06:34.522Z,90.60
2018-05-25T05:09:02.823Z,90.40
2018-05-25T05:11:30.337Z,90.40
2018-05-25T05:13:57.935Z,90.50
2018-05-25T05:16:25.499Z,90.40
2018-05-25T05:18:53.010Z,90.30
2018-05-25T05:21:20.518Z,90.20
2018-05-25T05:23:48.024Z,90.30
2018-05-25T05:26:15.535Z,90.30
2018-05-25T05:28:43.096Z,90.30
2018-05-25T05:31:10.608Z,90.30
2018-05-25T05:33:38.169Z,90.40
2018-05-25T05:36:05.640Z,90.30
2018-05-25T05:38:33.146Z,90.10
2018-05-25T05:41:00.696Z,90.10
2018-05-25T05:43:28.201Z,90.00
2018-05-25T05:45:55.725Z,90.10
2018-05-25T05:48:23.995Z,90.00
2018-05-25T05:50:51.551Z,90.00
2018-05-25T05:53:19.102Z,89.60
2018-05-25T05:55:46.662Z,89.60
2018-05-25T05:58:14.169Z,89.20
2018-05-25T06:00:41.686Z,88.50
2018-05-25T06:03:09.190Z,87.20
2018-05-25T06:05:36.696Z,86.40
2018-05-25T06:08:04.245Z,85.50
2018-05-25T06:10:31.763Z,85.00
2018-05-25T06:12:59.355Z,84.90
2018-05-25T06:15:27.618Z,84.90
2018-05-25T06:17:55.946Z,84.40
2018-05-25T06:20:23.472Z,84.40
2018-05-25T06:22:51.028Z,84.20
2018-05-25T06:25:19.336Z,84.20
2018-05-25T06:27:46.862Z,84.20
2018-05-25T06:30:14.428Z,83.60
2018-05-25T06:32:41.936Z,83.20
2018-05-25T06:35:09.448Z,82.90
2018-05-25T06:37:36.998Z,82.00
2018-05-25T06:40:04.515Z,81.60
2018-05-25T06:42:32.017Z,80.50
2018-05-25T06:44:59.517Z,78.30
2018-05-25T06:47:27.026Z,76.40
2018-05-25T06:49:54.552Z,75.40
2018-05-25T06:52:22.075Z,74.80
2018-05-25T06:54:49.619Z,74.40
2018-05-25T06:57:17.144Z,72.40
2018-05-25T06:59:44.644Z,73.00
2018-05-25T07:02:12.150Z,73.50
2018-05-25T07:04:39.656Z,74.40
2018-05-25T07:07:07.163Z,75.70
2018-05-25T07:09:34.660Z,76.60
2018-05-25T07:12:02.190Z,76.30
2018-05-25T07:14:29.697Z,75.40
2018-05-25T07:16:57.196Z,75.70
2018-05-25T07:19:24.719Z,75.10
2018-05-25T07:21:52.223Z,75.50
2018-05-25T07:24:20.516Z,74.80
2018-05-25T07:26:48.823Z,74.60
2018-05-25T07:29:16.367Z,74.60
2018-05-25T07:31:44.019Z,75.00
2018-05-25T07:34:12.295Z,75.20
2018-05-25T07:36:40.567Z,75.90
2018-05-25T07:39:08.852Z,75.20
2018-05-25T07:41:36.365Z,75.80
2018-05-25T07:44:03.871Z,74.60
2018-05-25T07:46:31.424Z,74.70
2018-05-25T07:48:58.927Z,74.20
2018-05-25T07:51:26.442Z,73.70
2018-05-25T07:53:53.966Z,72.80
2018-05-25T07:56:21.471Z,72.80
2018-05-25T07:58:48.976Z,72.70
2018-05-25T08:01:16.478Z,72.20
2018-05-25T08:03:43.975Z,71.60
2018-05-25T08:06:11.482Z,72.70
2018-05-25T08:08:39.755Z,72.90
2018-05-25T08:11:08.032Z,72.40
2018-05-25T08:13:36.294Z,72.80
2018-05-25T08:16:04.563Z,73.20
2018-05-25T08:18:32.092Z,73.20
2018-05-25T08:20:59.614Z,73.00
2018-05-25T08:23:27.112Z,72.20
2018-05-25T08:25:54.610Z,72.80
2018-05-25T08:28:22.894Z,71.60
2018-05-25T08:30:51.182Z,72.20
2018-05-25T08:33:18.735Z,72.20
2018-05-25T08:35:46.242Z,72.60
2018-05-25T08:38:13.751Z,72.80
2018-05-25T08:40:41.264Z,72.50
2018-05-25T08:43:08.758Z,72.60
2018-05-25T08:45:37.063Z,71.80
2018-05-25T08:48:04.560Z,71.60
2018-05-25T08:50:32.164Z,71.90
2018-05-25T08:52:59.672Z,71.60
2018-05-25T08:55:27.171Z,71.80
2018-05-25T08:57:55.473Z,70.30
2018-05-25T09:00:22.984Z,70.30
2018-05-25T09:02:51.368Z,69.60
2018-05-25T09:05:18.812Z,69.90
2018-05-25T09:07:46.312Z,70.30
2018-05-25T09:10:13.828Z,70.00
2018-05-25T09:12:41.333Z,69.30
2018-05-25T09:15:08.840Z,68.70
2018-05-25T09:17:36.359Z,67.20
2018-05-25T09:20:03.867Z,66.20
2018-05-25T09:22:31.458Z,65.70
2018-05-25T09:24:58.956Z,65.70
2018-05-25T09:27:26.463Z,65.00
2018-05-25T09:29:54.743Z,64.40
2018-05-25T09:32:23.063Z,64.90
2018-05-25T09:34:50.575Z,64.90
2018-05-25T09:37:18.843Z,64.90
2018-05-25T09:39:47.260Z,66.00
2018-05-25T09:42:14.779Z,66.00
2018-05-25T09:44:43.122Z,64.30
2018-05-25T09:47:11.331Z,64.50
2018-05-25T09:49:39.629Z,64.40
2018-05-25T09:52:07.134Z,64.40
2018-05-25T09:54:34.644Z,62.90
2018-05-25T09:57:02.216Z,63.60
2018-05-25T09:59:29.714Z,64.20
2018-05-25T10:01:57.215Z,64.30
2018-05-25T10:04:24.782Z,64.70
2018-05-25T10:06:52.291Z,64.90
2018-05-25T10:09:20.560Z,64.70
2018-05-25T10:11:48.085Z,64.70
2018-05-25T10:14:15.591Z,64.30
2018-05-25T10:16:43.098Z,63.20
2018-05-25T10:19:10.603Z,63.40
2018-05-25T10:21:38.105Z,63.50
2018-05-25T10:24:05.608Z,63.20
2018-05-25T10:26:33.115Z,62.50
2018-05-25T10:29:00.680Z,62.30
2018-05-25T10:31:28.199Z,61.70
2018-05-25T10:33:57.226Z,62.10
2018-05-25T10:36:24.742Z,62.10
2018-05-25T10:38:53.006Z,63.60
2018-05-25T10:41:20.506Z,62.80
2018-05-25T10:43:48.788Z,63.30
2018-05-25T10:46:16.303Z,63.20
2018-05-25T10:48:43.851Z,61.80
2018-05-25T10:51:11.322Z,62.00
2018-05-25T10:53:38.826Z,61.70
2018-05-25T10:56:06.347Z,61.70
2018-05-25T10:58:33.945Z,62.80
2018-05-25T11:01:02.211Z,62.20
2018-05-25T11:03:30.496Z,62.90
2018-05-25T11:05:58.794Z,62.10
2018-05-25T11:08:26.291Z,62.00
2018-05-25T11:10:53.806Z,62.30
2018-05-25T11:13:21.322Z,60.90
2018-05-25T11:15:48.832Z,60.90
2018-05-25T11:18:16.345Z,60.60
2018-05-25T11:20:43.843Z,61.60
2018-05-25T11:23:11.351Z,62.30
2018-05-25T11:25:38.867Z,63.50
2018-05-25T11:28:06.372Z,62.20
2018-05-25T11:30:33.895Z,62.90
2018-05-25T11:33:01.386Z,62.50
2018-05-25T11:35:28.900Z,61.00
2018-05-25T11:37:56.396Z,60.30
2018-05-25T11:40:23.906Z,60.30
2018-05-25T11:42:51.407Z,61.20
2018-05-25T11:45:18.909Z,60.90
2018-05-25T11:47:46.422Z,62.00
2018-05-25T11:50:14.031Z,62.40
2018-05-25T11:52:41.534Z,61.10
2018-05-25T11:55:09.032Z,61.50
2018-05-25T11:57:37.317Z,62.50
2018-05-25T12:00:04.821Z,62.30
2018-05-25T12:02:32.321Z,61.80
2018-05-25T12:05:00.598Z,62.50
2018-05-25T12:07:28.876Z,62.60
2018-05-25T12:09:57.172Z,63.30
2018-05-25T12:12:24.675Z,63.20
2018-05-25T12:14:52.184Z,63.10
2018-05-25T12:17:19.682Z,62.90
2018-05-25T12:19:47.206Z,62.10
2018-05-25T12:22:15.471Z,62.50
2018-05-25T12:24:42.982Z,63.20
2018-05-25T12:27:10.488Z,62.10
2018-05-25T12:29:37.995Z,61.90
2018-05-25T12:32:05.508Z,61.30
2018-05-25T12:34:33.018Z,60.80
2018-05-25T12:37:00.524Z,60.50
2018-05-25T12:39:28.026Z,60.40
2018-05-25T12:41:55.615Z,60.00
2018-05-25T12:44:23.896Z,59.40
2018-05-25T12:46:52.155Z,59.80
2018-05-25T12:49:19.659Z,59.80
2018-05-25T12:51:47.164Z,60.00
2018-05-25T12:54:14.666Z,60.10
2018-05-25T12:56:42.183Z,61.00
2018-05-25T12:59:09.670Z,59.40
2018-05-25T13:01:37.934Z,59.90
2018-05-25T13:04:06.208Z,61.00
2018-05-25T13:06:34.486Z,60.70
2018-05-25T13:09:02.774Z,60.20
2018-05-25T13:11:31.034Z,59.40
2018-05-25T13:13:59.296Z,59.40
2018-05-25T13:16:26.810Z,59.80
2018-05-25T13:18:54.311Z,57.50
2018-05-25T13:21:21.811Z,57.40
2018-05-25T13:23:49.361Z,57.50
2018-05-25T13:26:17.632Z,58.00
2018-05-25T13:28:45.907Z,58.50
2018-05-25T13:31:14.223Z,57.60
2018-05-25T13:33:42.495Z,56.90
2018-05-25T13:36:09.990Z,56.90
2018-05-25T13:38:37.500Z,57.20
2018-05-25T13:41:04.995Z,57.90
2018-05-25T13:43:32.491Z,57.20
2018-05-25T13:46:00.754Z,57.30
2018-05-25T13:48:28.262Z,57.30
2018-05-25T13:50:55.786Z,57.80
2018-05-25T13:53:24.171Z,58.30
2018-05-25T13:58:29.654Z,59.00
2018-05-25T14:00:57.893Z,57.70
2018-05-25T14:03:26.150Z,56.70
2018-05-25T14:05:53.655Z,56.60
2018-05-25T14:08:21.152Z,57.70
2018-05-25T14:10:48.653Z,58.30
2018-05-25T14:13:16.159Z,59.10
2018-05-25T14:15:43.655Z,58.50
2018-05-25T14:18:11.142Z,58.40
2018-05-25T14:20:38.815Z,58.50
2018-05-25T14:23:06.328Z,58.30
2018-05-25T14:25:33.825Z,59.10
2018-05-25T14:28:01.379Z,58.20
2018-05-25T14:30:28.935Z,58.10
2018-05-25T14:32:56.451Z,59.10
2018-05-25T14:35:25.451Z,58.90
2018-05-25T14:37:52.958Z,58.90
2018-05-25T14:40:20.447Z,58.80
2018-05-25T14:42:48.052Z,58.80
2018-05-25T14:45:15.571Z,58.80
2018-05-25T14:47:43.075Z,59.20
2018-05-25T14:50:10.583Z,59.70
2018-05-25T14:52:38.125Z,60.10
2018-05-25T14:55:05.614Z,60.60
2018-05-25T14:57:33.124Z,61.40
2018-05-25T15:00:00.627Z,61.50
2018-05-25T15:02:28.128Z,60.20
2018-05-25T15:04:55.630Z,60.60
2018-05-25T15:07:23.137Z,59.40
2018-05-25T15:09:51.400Z,59.20
2018-05-25T15:12:19.708Z,59.10
2018-05-25T15:14:47.207Z,59.10
2018-05-25T15:17:15.474Z,59.80
2018-05-25T15:19:42.971Z,59.30
2018-05-25T15:22:11.238Z,58.10
2018-05-25T15:24:39.506Z,58.50
2018-05-25T15:27:07.008Z,58.50
2018-05-25T15:29:34.548Z,59.00
2018-05-25T15:32:02.818Z,59.20
2018-05-25T15:34:31.111Z,59.90
2018-05-25T15:36:58.607Z,59.90
2018-05-25T15:39:26.111Z,60.30
2018-05-25T15:41:54.396Z,60.20
2018-05-25T15:44:21.903Z,60.00
2018-05-25T15:46:49.402Z,60.30
2018-05-25T15:49:17.683Z,59.90
2018-05-25T15:51:45.943Z,60.10
2018-05-25T15:54:14.198Z,60.60
2018-05-25T15:56:41.696Z,60.30
2018-05-25T15:59:09.195Z,60.90
2018-05-25T16:01:36.695Z,61.50
2018-05-25T16:04:04.951Z,61.60
2018-05-25T16:06:32.462Z,61.50
2018-05-25T16:09:00.731Z,61.30
2018-05-25T16:11:28.233Z,61.30
2018-05-25T16:13:55.738Z,61.70
2018-05-25T16:16:23.246Z,61.70
2018-05-25T16:18:50.744Z,62.10
2018-05-25T16:21:19.006Z,61.80
2018-05-25T16:23:47.278Z,61.70
2018-05-25T16:26:14.779Z,61.60
2018-05-25T16:28:42.279Z,62.10
2018-05-25T16:31:09.800Z,62.40
2018-05-25T16:33:37.313Z,62.40
2018-05-25T16:36:05.578Z,63.50
2018-05-25T16:38:33.086Z,63.50
2018-05-25T16:41:01.355Z,63.70
2018-05-25T16:43:28.851Z,63.70
2018-05-25T16:45:56.352Z,63.40
2018-05-25T16:48:24.635Z,63.50
2018-05-25T16:50:52.135Z,63.30
2018-05-25T16:53:19.631Z,63.50
2018-05-25T16:55:47.143Z,63.80
2018-05-25T16:58:14.641Z,63.90
2018-05-25T17:00:42.140Z,63.50
2018-05-25T17:03:09.686Z,62.90
2018-05-25T17:05:37.163Z,63.00
2018-05-25T17:08:04.703Z,63.40
2018-05-25T17:10:32.239Z,63.30
2018-05-25T17:12:59.751Z,63.70
2018-05-25T17:15:27.261Z,63.90
2018-05-25T17:17:55.543Z,64.40
2018-05-25T17:20:23.814Z,64.20
2018-05-25T17:22:52.083Z,64.10
2018-05-25T17:25:20.355Z,64.70
2018-05-25T17:27:47.853Z,64.60
2018-05-25T17:30:15.357Z,65.60
2018-05-25T17:32:42.965Z,65.60
2018-05-25T17:35:10.472Z,65.10
2018-05-25T17:37:39.484Z,65.30
2018-05-25T17:40:06.987Z,65.30
2018-05-25T17:42:34.487Z,65.30
2018-05-25T17:45:01.991Z,65.20
2018-05-25T17:47:29.539Z,65.30
2018-05-25T17:49:57.055Z,65.60
2018-05-25T17:52:24.568Z,65.60
2018-05-25T17:54:52.086Z,65.90
2018-05-25T17:57:19.623Z,65.90
2018-05-25T17:59:47.138Z,66.30
2018-05-25T18:02:14.696Z,66.30
2018-05-25T18:04:42.195Z,66.60
2018-05-25T18:07:09.691Z,66.80
2018-05-25T18:09:37.956Z,66.90
2018-05-25T18:12:05.456Z,66.90
2018-05-25T18:14:32.951Z,67.00
2018-05-25T18:17:00.470Z,66.90
2018-05-25T18:19:27.977Z,66.80
2018-05-25T18:21:55.486Z,66.80
2018-05-25T18:24:22.990Z,67.00
2018-05-25T18:26:50.597Z,67.00
2018-05-25T18:29:18.112Z,67.10
2018-05-25T18:31:46.375Z,67.00
2018-05-25T18:34:13.889Z,66.90
2018-05-25T18:36:41.396Z,66.90
2018-05-25T18:39:08.904Z,67.00
2018-05-25T18:41:36.469Z,67.10
2018-05-25T18:44:03.977Z,67.20
2018-05-25T18:46:31.480Z,67.40
2018-05-25T18:48:58.988Z,67.50
2018-05-25T18:51:26.589Z,67.90
2018-05-25T18:54:06.779Z,68.20
2018-05-25T18:56:34.311Z,68.20
2018-05-25T18:59:01.811Z,68.60
2018-05-25T19:01:29.307Z,68.70
2018-05-25T19:03:57.588Z,69.60
2018-05-25T19:06:25.866Z,69.60
2018-05-25T19:08:54.139Z,70.20
2018-05-25T19:11:22.397Z,70.50
2018-05-25T19:13:49.919Z,70.50
2018-05-25T19:16:17.447Z,70.60
2018-05-25T19:18:44.956Z,71.30
2018-05-25T19:21:12.565Z,71.40
2018-05-25T19:23:40.486Z,71.80
2018-05-25T19:26:07.991Z,72.30
2018-05-25T19:28:35.510Z,72.50
2018-05-25T19:31:03.015Z,72.50
2018-05-25T19:33:30.521Z,72.60
2018-05-25T19:35:58.006Z,72.90
2018-05-25T19:38:26.300Z,73.20
2018-05-25T19:40:53.795Z,73.20
2018-05-25T19:43:21.291Z,73.40
2018-05-25T19:45:49.594Z,73.90
2018-05-25T19:48:17.152Z,73.80
2018-05-25T19:50:44.663Z,74.00
2018-05-25T19:53:12.165Z,74.10
2018-05-25T19:55:39.678Z,74.30
2018-05-25T19:58:07.245Z,74.30
2018-05-25T20:00:34.740Z,74.40
2018-05-25T20:03:02.231Z,74.50
2018-05-25T20:05:29.739Z,74.60
2018-05-25T20:07:58.035Z,74.90
2018-05-25T20:10:25.536Z,74.90
2018-05-25T20:12:53.056Z,74.90
2018-05-25T20:15:20.560Z,74.60
2018-05-25T20:17:48.064Z,75.20
2018-05-25T20:20:16.406Z,75.70
2018-05-25T20:22:43.906Z,75.70
2018-05-25T20:25:11.446Z,75.80
2018-05-25T20:27:39.716Z,76.10
2018-05-25T20:30:07.206Z,76.00
2018-05-25T20:32:34.715Z,76.10
2018-05-25T20:35:02.225Z,76.30
2018-05-25T20:37:29.736Z,76.30
2018-05-25T20:39:58.737Z,76.30
2018-05-25T20:42:27.016Z,76.40
2018-05-25T20:44:55.491Z,76.60
2018-05-25T20:47:23.000Z,76.60
2018-05-25T20:49:50.493Z,76.70
2018-05-25T20:52:18.004Z,76.60
2018-05-25T20:54:45.562Z,76.80
2018-05-25T20:57:13.109Z,76.80
2018-05-25T20:59:40.620Z,76.80
2018-05-25T21:02:08.116Z,77.00
2018-05-25T21:04:36.390Z,77.00
2018-05-25T21:07:04.650Z,77.20
2018-05-25T21:09:32.151Z,77.20
2018-05-25T21:11:59.713Z,77.40
2018-05-25T21:14:27.266Z,77.60
2018-05-25T21:16:54.770Z,77.60
2018-05-25T21:19:22.276Z,77.80
2018-05-25T21:21:50.555Z,77.90
2018-05-25T21:24:18.058Z,77.90
2018-05-25T21:26:45.563Z,78.00
2018-05-25T21:29:13.842Z,78.20
2018-05-25T21:31:42.113Z,78.30
2018-05-25T21:34:10.386Z,78.50
2018-05-25T21:36:38.669Z,78.70
2018-05-25T21:39:06.930Z,78.80
2018-05-25T21:41:35.192Z,78.80
2018-05-25T21:44:02.705Z,78.70
2018-05-25T21:46:30.257Z,78.80
2018-05-25T21:48:58.515Z,79.20
2018-05-25T21:51:26.792Z,79.60
2018-05-25T21:53:55.092Z,79.70
2018-05-25T21:56:22.592Z,79.70
2018-05-25T21:58:50.110Z,79.70
2018-05-25T22:01:17.614Z,80.10
2018-05-25T22:03:45.116Z,80.30
2018-05-25T22:06:12.675Z,80.40
2018-05-25T22:08:40.335Z,80.80
2018-05-25T22:11:07.848Z,80.90
2018-05-25T22:13:35.347Z,81.00
2018-05-25T22:16:02.848Z,81.10
2018-05-25T22:18:30.358Z,81.10
2018-05-25T22:20:57.938Z,81.00
2018-05-25T22:23:25.445Z,81.00
2018-05-25T22:25:53.728Z,80.80
2018-05-25T22:28:21.228Z,81.00
2018-05-25T22:30:48.738Z,81.10
2018-05-25T22:33:16.279Z,81.20
2018-05-25T22:35:43.800Z,81.30
2018-05-25T22:38:11.298Z,81.50
2018-05-25T22:40:38.807Z,81.60
2018-05-25T22:43:18.086Z,81.60
2018-05-25T22:45:57.608Z,81.70
2018-05-25T22:48:37.118Z,81.80
2018-05-25T22:51:16.592Z,81.90
2018-05-25T22:53:49.290Z,81.90
2018-05-25T22:56:16.792Z,82.10
2018-05-25T22:58:44.312Z,82.10
2018-05-25T23:01:11.834Z,82.30
2018-05-25T23:03:39.375Z,82.40
2018-05-25T23:06:06.879Z,82.40
2018-05-25T23:08:34.383Z,82.60
2018-05-25T23:11:01.904Z,82.80
2018-05-25T23:13:29.413Z,82.90
2018-05-25T23:15:56.930Z,83.10
2018-05-25T23:18:25.936Z,83.30
2018-05-25T23:20:54.223Z,83.50
2018-05-25T23:23:22.482Z,83.60
2018-05-25T23:25:50.755Z,83.80
2018-05-25T23:28:18.266Z,83.80
2018-05-25T23:30:45.775Z,83.80
2018-05-25T23:33:14.038Z,84.30
2018-05-25T23:35:41.543Z,84.30
2018-05-25T23:38:09.048Z,84.60
2018-05-25T23:40:36.588Z,84.90
2018-05-25T23:43:04.194Z,85.00
2018-05-25T23:45:32.456Z,84.80
2018-05-25T23:47:59.963Z,84.80
2018-05-25T23:50:27.465Z,84.40
2018-05-25T23:52:55.069Z,84.70
2018-05-25T23:55:22.566Z,84.80
2018-05-25T23:57:50.066Z,84.70
